Time;durP1;ratioP1;P1;durP2;ratioP2;P2;SDS_P1;SDS_P2;PMS_P1;PMS_P2;Temp;Humidity;BMP_temperature;BMP_pressure;BME280_temperature;BME280_humidity;BME280_pressure;Samples;Min_cycle;Max_cycle;Signal;HPM_P1;HPM_P2
2023/05/05 00:02:11;;;;;;;5.03;3.08;;;;;;;;;;5045588;28;20036;-63
2023/05/05 00:04:37;;;;;;;4.65;2.88;;;;;;;;;;5043798;28;20083;-63
2023/05/05 00:07:03;;;;;;;3.88;2.70;;;;;;;;;;5044239;28;20055;-63
2023/05/05 00:09:29;;;;;;;4.93;2.88;;;;;;;;;;5045232;28;20040;-63
2023/05/05 00:11:55;;;;;;;5.75;2.95;;;;;;;;;;5043552;28;20047;-63
2023/05/05 00:14:21;;;;;;;3.20;2.67;;;;;;;;;;5045352;28;20063;-64
2023/05/05 00:16:47;;;;;;;4.70;3.28;;;;;;;;;;5043754;28;20075;-64
2023/05/05 00:19:13;;;;;;;4.53;2.50;;;;;;;;;;5045334;28;21070;-63
2023/05/05 00:21:39;;;;;;;5.13;2.58;;;;;;;;;;5045070;28;20036;-63
2023/05/05 00:24:05;;;;;;;3.47;2.30;;;;;;;;;;5025433;28;20056;-63
2023/05/05 00:26:31;;;;;;;6.65;2.70;;;;;;;;;;5025690;28;20419;-63
2023/05/05 00:28:57;;;;;;;2.63;2.40;;;;;;;;;;5043743;28;20053;-63
2023/05/05 00:31:23;;;;;;;4.10;2.50;;;;;;;;;;5026520;28;20411;-63
2023/05/05 00:33:49;;;;;;;4.28;2.95;;;;;;;;;;5042364;28;20120;-63
2023/05/05 00:36:15;;;;;;;4.65;2.90;;;;;;;;;;5044361;28;20034;-63
2023/05/05 00:38:41;;;;;;;5.97;3.63;;;;;;;;;;5043805;28;20048;-63
2023/05/05 00:41:07;;;;;;;4.47;2.90;;;;;;;;;;5043150;28;20076;-65
2023/05/05 00:43:33;;;;;;;3.53;2.95;;;;;;;;;;5045435;28;20084;-63
2023/05/05 00:46:01;;;;;;;3.20;2.45;;;;;;;;;;5044276;28;20902;-63
2023/05/05 00:48:31;;;;;;;3.13;2.83;;;;;;;;;;5043847;28;20465;-63
2023/05/05 00:50:57;;;;;;;4.00;2.97;;;;;;;;;;5043024;28;20052;-63
2023/05/05 00:53:24;;;;;;;5.10;3.05;;;;;;;;;;5043388;28;20044;-63
2023/05/05 00:55:50;;;;;;;4.40;2.25;;;;;;;;;;5043655;28;20041;-63
2023/05/05 00:58:17;;;;;;;2.80;2.13;;;;;;;;;;5025564;28;20051;-63
2023/05/05 01:00:43;;;;;;;7.88;3.38;;;;;;;;;;5042425;28;20376;-63
2023/05/05 01:03:11;;;;;;;7.97;3.20;;;;;;;;;;5043486;28;20080;-63
2023/05/05 01:05:57;;;;;;;5.15;3.08;;;;;;;;;;5025527;28;20053;-63
2023/05/05 01:08:32;;;;;;;2.85;2.47;;;;;;;;;;5018475;28;20107;-63
2023/05/05 01:11:02;;;;;;;7.95;3.45;;;;;;;;;;5039885;28;20045;-63
2023/05/05 01:13:46;;;;;;;3.28;2.72;;;;;;;;;;5042870;28;20056;-63
2023/05/05 01:16:19;;;;;;;4.18;3.00;;;;;;;;;;5043013;28;20045;-63
2023/05/05 01:19:06;;;;;;;2.88;2.67;;;;;;;;;;5025286;28;20052;-63
2023/05/05 01:21:40;;;;;;;5.90;3.15;;;;;;;;;;5042633;28;20557;-63
2023/05/05 01:24:15;;;;;;;7.05;3.42;;;;;;;;;;5027381;28;20472;-63
2023/05/05 01:26:44;;;;;;;5.40;3.42;;;;;;;;;;5043204;28;20090;-63
2023/05/05 01:29:26;;;;;;;3.03;2.78;;;;;;;;;;5025141;28;20543;-63
2023/05/05 01:31:55;;;;;;;2.67;2.20;;;;;;;;;;5043051;28;20045;-62
2023/05/05 01:34:31;;;;;;;2.50;2.30;;;;;;;;;;5039994;28;20075;-63
2023/05/05 01:37:05;;;;;;;3.85;2.88;;;;;;;;;;5041965;28;20080;-63
2023/05/05 01:39:33;;;;;;;3.75;2.20;;;;;;;;;;5043141;28;20041;-63
2023/05/05 01:42:02;;;;;;;4.28;2.95;;;;;;;;;;5024186;28;20084;-63
2023/05/05 01:44:28;;;;;;;3.47;3.00;;;;;;;;;;5042474;28;20052;-63
2023/05/05 01:46:55;;;;;;;4.80;3.20;;;;;;;;;;5042009;28;20049;-63
2023/05/05 01:49:21;;;;;;;7.22;3.17;;;;;;;;;;5025331;28;20048;-63
2023/05/05 01:51:48;;;;;;;2.97;2.78;;;;;;;;;;5043534;28;20116;-63
2023/05/05 01:54:14;;;;;;;5.38;2.92;;;;;;;;;;5044293;28;20045;-63
2023/05/05 01:56:41;;;;;;;5.68;3.55;;;;;;;;;;5043001;28;20029;-63
2023/05/05 01:59:08;;;;;;;6.22;3.20;;;;;;;;;;5024924;28;20049;-63
2023/05/05 02:01:40;;;;;;;4.30;3.10;;;;;;;;;;5025686;28;20072;-63
2023/05/05 02:04:08;;;;;;;4.63;3.70;;;;;;;;;;5042158;28;20053;-63
2023/05/05 02:06:35;;;;;;;3.15;2.88;;;;;;;;;;5025889;28;20491;-63
2023/05/05 02:09:02;;;;;;;4.55;3.33;;;;;;;;;;5043181;28;20055;-63
2023/05/05 02:11:29;;;;;;;5.05;3.28;;;;;;;;;;5043157;28;20040;-63
2023/05/05 02:13:55;;;;;;;4.95;2.85;;;;;;;;;;5027487;28;20084;-63
2023/05/05 02:16:22;;;;;;;8.70;3.38;;;;;;;;;;5046293;28;20041;-63
2023/05/05 02:18:48;;;;;;;3.53;2.42;;;;;;;;;;5027957;28;20123;-63
2023/05/05 02:21:16;;;;;;;3.50;2.70;;;;;;;;;;5047508;28;20045;-63
2023/05/05 02:23:43;;;;;;;2.53;2.10;;;;;;;;;;5028991;28;20128;-63
2023/05/05 02:26:10;;;;;;;3.35;2.13;;;;;;;;;;5045966;28;20040;-63
2023/05/05 02:28:41;;;;;;;3.75;3.17;;;;;;;;;;5029185;28;20114;-63
2023/05/05 02:31:08;;;;;;;3.38;2.28;;;;;;;;;;5046366;28;20063;-63
2023/05/05 02:33:34;;;;;;;4.93;3.42;;;;;;;;;;5028431;28;20049;-63
2023/05/05 02:36:06;;;;;;;5.18;2.97;;;;;;;;;;5046345;28;20090;-63
2023/05/05 02:38:33;;;;;;;4.35;2.78;;;;;;;;;;5046180;28;20040;-63
2023/05/05 02:41:01;;;;;;;4.43;3.53;;;;;;;;;;5028230;28;20048;-63
2023/05/05 02:43:29;;;;;;;3.90;3.17;;;;;;;;;;5046970;28;20136;-63
2023/05/05 02:45:55;;;;;;;4.05;2.67;;;;;;;;;;5042910;28;20544;-63
2023/05/05 02:48:21;;;;;;;3.38;2.85;;;;;;;;;;5029236;28;20076;-63
2023/05/05 02:50:47;;;;;;;4.85;3.92;;;;;;;;;;5028197;28;20401;-63
2023/05/05 02:53:13;;;;;;;7.05;3.67;;;;;;;;;;5028246;28;20095;-63
2023/05/05 02:55:43;;;;;;;4.10;3.40;;;;;;;;;;5046416;28;20091;-63
2023/05/05 02:58:29;;;;;;;3.92;2.72;;;;;;;;;;5045823;28;20458;-63
2023/05/05 03:01:15;;;;;;;5.78;3.08;;;;;;;;;;5045268;28;20419;-63
2023/05/05 03:03:44;;;;;;;3.58;2.83;;;;;;;;;;5024873;28;20515;-63
2023/05/05 03:06:10;;;;;;;3.42;3.03;;;;;;;;;;5027750;28;20132;-63
2023/05/05 03:08:48;;;;;;;4.70;2.90;;;;;;;;;;5027510;28;20470;-63
2023/05/05 03:11:17;;;;;;;6.93;3.10;;;;;;;;;;5028839;28;20732;-63
2023/05/05 03:13:43;;;;;;;2.72;2.45;;;;;;;;;;5045769;28;20044;-63
2023/05/05 03:16:10;;;;;;;3.17;2.42;;;;;;;;;;5027551;28;20073;-63
2023/05/05 03:18:36;;;;;;;3.45;2.60;;;;;;;;;;5027576;28;20416;-63
2023/05/05 03:21:07;;;;;;;3.75;2.22;;;;;;;;;;5044875;28;20056;-63
2023/05/05 03:23:33;;;;;;;2.20;1.75;;;;;;;;;;5045766;28;20048;-63
2023/05/05 03:25:59;;;;;;;4.28;2.90;;;;;;;;;;5045516;28;20037;-63
2023/05/05 03:28:26;;;;;;;2.58;2.38;;;;;;;;;;5045124;28;20376;-63
2023/05/05 03:30:52;;;;;;;2.17;1.90;;;;;;;;;;5027348;28;20387;-63
2023/05/05 03:33:18;;;;;;;1.85;1.75;;;;;;;;;;5027424;28;20060;-63
2023/05/05 03:35:44;;;;;;;1.80;1.60;;;;;;;;;;5044402;28;20037;-63
2023/05/05 03:38:10;;;;;;;3.00;2.05;;;;;;;;;;5045222;28;20045;-63
2023/05/05 03:40:36;;;;;;;2.63;2.42;;;;;;;;;;5029235;28;20498;-63
2023/05/05 03:43:02;;;;;;;1.85;1.70;;;;;;;;;;5025891;28;20063;-63
2023/05/05 03:45:28;;;;;;;1.73;1.60;;;;;;;;;;5045070;28;20043;-64
2023/05/05 03:47:54;;;;;;;1.20;1.13;;;;;;;;;;5044993;28;20060;-63
2023/05/05 03:50:21;;;;;;;1.65;1.30;;;;;;;;;;5044460;28;20090;-63
2023/05/05 03:52:47;;;;;;;1.73;1.23;;;;;;;;;;5026410;28;20048;-63
2023/05/05 03:55:13;;;;;;;0.73;0.73;;;;;;;;;;5027305;28;20400;-63
2023/05/05 03:57:39;;;;;;;0.77;0.70;;;;;;;;;;5026097;28;20098;-63
2023/05/05 04:00:09;;;;;;;1.20;1.10;;;;;;;;;;5026532;28;20494;-63
2023/05/05 04:02:35;;;;;;;1.08;0.80;;;;;;;;;;5026946;28;20357;-63
2023/05/05 04:05:01;;;;;;;0.80;0.80;;;;;;;;;;5025988;28;20057;-63
2023/05/05 04:07:27;;;;;;;0.80;0.75;;;;;;;;;;5045026;28;20048;-63
2023/05/05 04:09:53;;;;;;;1.35;1.25;;;;;;;;;;5042644;28;20280;-63
2023/05/05 04:12:19;;;;;;;1.90;1.30;;;;;;;;;;5026715;28;20044;-63
2023/05/05 04:14:45;;;;;;;1.60;1.20;;;;;;;;;;5043961;28;20041;-63
2023/05/05 04:17:11;;;;;;;2.22;0.80;;;;;;;;;;5025691;28;20168;-63
2023/05/05 04:19:37;;;;;;;0.80;0.80;;;;;;;;;;5044405;28;20139;-63
2023/05/05 04:22:03;;;;;;;2.33;1.50;;;;;;;;;;5044037;28;20976;-63
2023/05/05 04:24:29;;;;;;;1.17;1.08;;;;;;;;;;5024733;28;20459;-63
2023/05/05 04:26:55;;;;;;;1.33;1.20;;;;;;;;;;5042060;28;20076;-63
2023/05/05 04:29:21;;;;;;;0.85;0.85;;;;;;;;;;5026551;28;20044;-63
2023/05/05 04:31:47;;;;;;;1.42;1.33;;;;;;;;;;5043047;28;20045;-63
2023/05/05 04:34:13;;;;;;;3.75;1.42;;;;;;;;;;5044826;28;20041;-63
2023/05/05 04:36:39;;;;;;;2.15;1.67;;;;;;;;;;5025687;28;20044;-63
2023/05/05 04:39:07;;;;;;;1.40;1.30;;;;;;;;;;5043039;28;20144;-63
2023/05/05 04:41:33;;;;;;;1.20;1.10;;;;;;;;;;5043854;28;20037;-63
2023/05/05 04:43:59;;;;;;;1.40;1.30;;;;;;;;;;5025439;28;20086;-63
2023/05/05 04:46:25;;;;;;;4.43;2.03;;;;;;;;;;5042423;28;20080;-63
2023/05/05 04:48:51;;;;;;;2.05;1.63;;;;;;;;;;5025769;28;20501;-63
2023/05/05 04:51:17;;;;;;;1.70;1.40;;;;;;;;;;5043970;28;20116;-63
2023/05/05 04:53:43;;;;;;;1.60;1.40;;;;;;;;;;5025417;28;20065;-63
2023/05/05 04:56:09;;;;;;;1.80;1.67;;;;;;;;;;5025019;28;20053;-63
2023/05/05 04:58:35;;;;;;;4.05;2.40;;;;;;;;;;5043714;28;20041;-63
2023/05/05 05:01:02;;;;;;;4.57;2.88;;;;;;;;;;5042673;28;20377;-63
2023/05/05 05:03:28;;;;;;;4.00;2.65;;;;;;;;;;5043774;28;20052;-63
2023/05/05 05:05:54;;;;;;;2.53;2.20;;;;;;;;;;5042653;28;20033;-63
2023/05/05 05:08:20;;;;;;;5.13;3.00;;;;;;;;;;5043644;28;20037;-63
2023/05/05 05:10:46;;;;;;;9.05;3.00;;;;;;;;;;5024945;28;20056;-65
2023/05/05 05:13:12;;;;;;;4.10;3.03;;;;;;;;;;5024616;28;20048;-64
2023/05/05 05:15:38;;;;;;;2.47;2.28;;;;;;;;;;5025939;28;20134;-62
2023/05/05 05:18:04;;;;;;;3.72;2.33;;;;;;;;;;5025183;28;20048;-63
2023/05/05 05:20:31;;;;;;;3.03;1.85;;;;;;;;;;5043411;28;20056;-62
2023/05/05 05:22:57;;;;;;;2.40;2.10;;;;;;;;;;5025619;28;20543;-62
2023/05/05 05:25:23;;;;;;;1.52;1.42;;;;;;;;;;5026689;28;20045;-62
2023/05/05 05:27:49;;;;;;;2.03;1.58;;;;;;;;;;5042141;28;20495;-62
2023/05/05 05:30:15;;;;;;;5.55;2.85;;;;;;;;;;5025565;28;20075;-62
2023/05/05 05:32:41;;;;;;;3.70;3.38;;;;;;;;;;5025834;28;20059;-62
2023/05/05 05:35:07;;;;;;;4.57;3.58;;;;;;;;;;5042727;28;20052;-63
2023/05/05 05:37:34;;;;;;;3.30;3.00;;;;;;;;;;5022592;28;20047;-62
2023/05/05 05:40:00;;;;;;;6.45;3.50;;;;;;;;;;5030162;28;20052;-62
2023/05/05 05:42:26;;;;;;;3.08;2.60;;;;;;;;;;5025412;28;20060;-62
2023/05/05 05:44:52;;;;;;;2.45;2.03;;;;;;;;;;5043260;28;20045;-62
2023/05/05 05:47:18;;;;;;;2.00;1.90;;;;;;;;;;5044696;28;20091;-63
2023/05/05 05:49:44;;;;;;;1.83;1.73;;;;;;;;;;5047684;28;20076;-62
2023/05/05 05:52:10;;;;;;;1.88;1.67;;;;;;;;;;5042205;28;20045;-63
2023/05/05 05:54:36;;;;;;;3.28;2.22;;;;;;;;;;5047399;28;20051;-63
2023/05/05 05:57:02;;;;;;;4.95;2.30;;;;;;;;;;5046182;28;20483;-62
2023/05/05 05:59:28;;;;;;;2.45;2.00;;;;;;;;;;5045733;28;20129;-62
2023/05/05 06:01:55;;;;;;;1.80;1.70;;;;;;;;;;5029302;28;20094;-63
2023/05/05 06:04:21;;;;;;;1.98;1.77;;;;;;;;;;5046537;28;21069;-62
2023/05/05 06:06:47;;;;;;;2.33;2.10;;;;;;;;;;5045996;28;20048;-62
2023/05/05 06:09:13;;;;;;;3.05;2.00;;;;;;;;;;5046976;28;20102;-62
2023/05/05 06:11:39;;;;;;;2.30;1.98;;;;;;;;;;5045740;28;20041;-62
2023/05/05 06:14:05;;;;;;;2.63;2.35;;;;;;;;;;5046445;28;20055;-62
2023/05/05 06:16:31;;;;;;;4.10;2.63;;;;;;;;;;5028574;28;20037;-62
2023/05/05 06:18:57;;;;;;;2.10;1.90;;;;;;;;;;5028512;28;20061;-62
2023/05/05 06:21:23;;;;;;;3.30;2.88;;;;;;;;;;5047141;28;20033;-62
2023/05/05 06:23:49;;;;;;;3.47;2.38;;;;;;;;;;5045780;28;20080;-62
2023/05/05 06:26:16;;;;;;;2.63;2.40;;;;;;;;;;5028877;28;20037;-62
2023/05/05 06:28:42;;;;;;;2.88;2.47;;;;;;;;;;5029161;28;20055;-62
2023/05/05 06:31:08;;;;;;;2.10;1.90;;;;;;;;;;5045949;28;20095;-63
2023/05/05 06:33:34;;;;;;;2.20;2.03;;;;;;;;;;5028445;28;20082;-63
2023/05/05 06:36:00;;;;;;;1.60;1.50;;;;;;;;;;5046166;28;20107;-62
2023/05/05 06:38:26;;;;;;;2.17;1.90;;;;;;;;;;5028064;28;20055;-62
2023/05/05 06:40:52;;;;;;;2.05;1.77;;;;;;;;;;5045939;28;20047;-63
2023/05/05 06:43:18;;;;;;;2.95;2.03;;;;;;;;;;5047503;28;20423;-62
2023/05/05 06:45:44;;;;;;;2.90;2.47;;;;;;;;;;5045998;28;20045;-63
2023/05/05 06:48:10;;;;;;;2.17;1.98;;;;;;;;;;5031638;28;20048;-62
2023/05/05 06:50:36;;;;;;;5.30;3.17;;;;;;;;;;5029811;28;20491;-62
2023/05/05 06:53:02;;;;;;;2.97;2.67;;;;;;;;;;5027405;28;20083;-63
2023/05/05 06:55:28;;;;;;;2.40;2.20;;;;;;;;;;5046963;28;20109;-62
2023/05/05 06:57:54;;;;;;;2.75;2.55;;;;;;;;;;5046008;28;20045;-62
2023/05/05 07:00:21;;;;;;;3.28;2.70;;;;;;;;;;5025300;28;20057;-63
2023/05/05 07:02:47;;;;;;;2.95;2.65;;;;;;;;;;5027769;28;20043;-63
2023/05/05 07:05:13;;;;;;;4.47;2.75;;;;;;;;;;5046407;28;20049;-63
2023/05/05 07:07:40;;;;;;;3.38;2.97;;;;;;;;;;5027915;28;20045;-62
2023/05/05 07:10:08;;;;;;;4.32;3.13;;;;;;;;;;5027966;28;20048;-63
2023/05/05 07:12:34;;;;;;;3.50;2.75;;;;;;;;;;5028695;28;20071;-63
2023/05/05 07:15:00;;;;;;;3.45;3.15;;;;;;;;;;5045461;28;20045;-63
2023/05/05 07:17:26;;;;;;;4.68;3.53;;;;;;;;;;5045577;28;20105;-63
2023/05/05 07:19:53;;;;;;;2.97;2.78;;;;;;;;;;5045472;28;20583;-63
2023/05/05 07:22:19;;;;;;;3.63;3.10;;;;;;;;;;5043412;28;20059;-63
2023/05/05 07:24:45;;;;;;;3.30;2.95;;;;;;;;;;5028065;28;20098;-63
2023/05/05 07:27:12;;;;;;;3.65;3.35;;;;;;;;;;5027816;28;20064;-63
2023/05/05 07:29:38;;;;;;;5.03;2.97;;;;;;;;;;5047229;28;20055;-62
2023/05/05 07:32:04;;;;;;;6.30;3.38;;;;;;;;;;5043042;28;20053;-63
2023/05/05 07:34:33;;;;;;;4.45;4.03;;;;;;;;;;5032895;28;20094;-63
2023/05/05 07:36:59;;;;;;;4.05;3.65;;;;;;;;;;5045486;28;20056;-63
2023/05/05 07:39:25;;;;;;;3.92;3.63;;;;;;;;;;5045447;28;20380;-63
2023/05/05 07:41:51;;;;;;;3.28;3.03;;;;;;;;;;5027029;28;20188;-62
2023/05/05 07:44:17;;;;;;;3.75;3.45;;;;;;;;;;5045578;28;20151;-63
2023/05/05 07:46:43;;;;;;;3.60;3.30;;;;;;;;;;5027619;28;20522;-63
2023/05/05 07:49:09;;;;;;;3.80;3.50;;;;;;;;;;5026741;28;20057;-62
2023/05/05 07:51:35;;;;;;;4.85;3.40;;;;;;;;;;5028123;28;20045;-62
2023/05/05 07:54:01;;;;;;;5.03;4.60;;;;;;;;;;5045171;28;20051;-63
2023/05/05 07:56:27;;;;;;;4.25;3.22;;;;;;;;;;5045176;28;20041;-63
2023/05/05 07:58:53;;;;;;;5.50;4.25;;;;;;;;;;5045293;28;20037;-63
2023/05/05 08:01:19;;;;;;;4.05;3.65;;;;;;;;;;5024099;28;20052;-63
2023/05/05 08:03:45;;;;;;;6.85;4.78;;;;;;;;;;5027004;28;20049;-61
2023/05/05 08:06:11;;;;;;;5.60;3.83;;;;;;;;;;5045926;28;20053;-64
2023/05/05 08:08:37;;;;;;;4.57;4.18;;;;;;;;;;5027733;28;20045;-64
2023/05/05 08:11:05;;;;;;;3.40;3.13;;;;;;;;;;5026366;28;20107;-66
2023/05/05 08:13:31;;;;;;;4.88;3.17;;;;;;;;;;5045798;28;20049;-67
2023/05/05 08:15:57;;;;;;;5.55;4.60;;;;;;;;;;5027278;28;20057;-64
2023/05/05 08:18:23;;;;;;;4.68;4.28;;;;;;;;;;5045337;28;20049;-64
2023/05/05 08:20:49;;;;;;;4.32;3.92;;;;;;;;;;5045355;28;20053;-65
2023/05/05 08:23:15;;;;;;;3.92;3.63;;;;;;;;;;5026627;28;20514;-64
2023/05/05 08:25:41;;;;;;;5.28;4.32;;;;;;;;;;5027734;28;20057;-65
2023/05/05 08:28:07;;;;;;;4.95;4.55;;;;;;;;;;5027373;28;20052;-64
2023/05/05 08:30:34;;;;;;;4.88;3.97;;;;;;;;;;5045168;28;20045;-63
2023/05/05 08:33:00;;;;;;;3.97;3.67;;;;;;;;;;5043881;28;20052;-64
2023/05/05 08:35:26;;;;;;;4.22;3.83;;;;;;;;;;5045168;28;20040;-64
2023/05/05 08:37:52;;;;;;;4.40;4.00;;;;;;;;;;5026244;28;20052;-64
2023/05/05 08:40:23;;;;;;;3.70;3.40;;;;;;;;;;5027292;28;20510;-64
2023/05/05 08:42:49;;;;;;;6.03;4.20;;;;;;;;;;5021624;28;20048;-64
2023/05/05 08:45:16;;;;;;;4.53;4.05;;;;;;;;;;5033329;28;20049;-64
2023/05/05 08:47:42;;;;;;;6.05;5.55;;;;;;;;;;5044500;28;20049;-64
2023/05/05 08:50:09;;;;;;;5.75;4.45;;;;;;;;;;5043961;28;20040;-64
2023/05/05 08:52:40;;;;;;;6.72;4.65;;;;;;;;;;5026144;28;20380;-64
2023/05/05 08:55:26;;;;;;;5.10;4.60;;;;;;;;;;5042716;28;20053;-64
2023/05/05 08:57:52;;;;;;;4.47;4.10;;;;;;;;;;5043290;28;20472;-64
2023/05/05 09:00:19;;;;;;;4.15;3.65;;;;;;;;;;5025562;28;20040;-64
2023/05/05 09:02:46;;;;;;;4.60;4.20;;;;;;;;;;5043893;28;20052;-64
2023/05/05 09:05:12;;;;;;;4.22;3.92;;;;;;;;;;5025998;28;20061;-64
2023/05/05 09:07:40;;;;;;;3.08;2.88;;;;;;;;;;5044458;28;20052;-64
2023/05/05 09:10:07;;;;;;;3.85;3.50;;;;;;;;;;5043569;28;20564;-66
2023/05/05 09:12:34;;;;;;;3.70;3.40;;;;;;;;;;5025951;28;20059;-64
2023/05/05 09:15:03;;;;;;;4.65;4.13;;;;;;;;;;5043552;28;20475;-66
2023/05/05 09:17:30;;;;;;;5.60;4.90;;;;;;;;;;5044157;28;20289;-64
2023/05/05 09:20:03;;;;;;;5.18;4.53;;;;;;;;;;5024625;28;20053;-64
2023/05/05 09:22:39;;;;;;;4.80;4.40;;;;;;;;;;5029575;28;20048;-64
2023/05/05 09:25:06;;;;;;;4.85;4.45;;;;;;;;;;5032649;28;20491;-64
2023/05/05 09:27:36;;;;;;;5.65;5.15;;;;;;;;;;5050117;28;20048;-64
2023/05/05 09:30:02;;;;;;;6.40;5.43;;;;;;;;;;5050405;28;20056;-64
2023/05/05 09:32:28;;;;;;;4.30;4.00;;;;;;;;;;5049381;28;20045;-64
2023/05/05 09:34:58;;;;;;;4.00;3.70;;;;;;;;;;5030567;28;20084;-65
2023/05/05 09:37:31;;;;;;;5.43;4.70;;;;;;;;;;5052106;28;20052;-65
2023/05/05 09:39:59;;;;;;;5.35;3.42;;;;;;;;;;5032731;28;20320;-65
2023/05/05 09:42:25;;;;;;;5.85;5.25;;;;;;;;;;5032441;28;20133;-65
2023/05/05 09:44:52;;;;;;;4.20;3.90;;;;;;;;;;5033451;28;20087;-65
2023/05/05 09:47:18;;;;;;;4.07;3.78;;;;;;;;;;5032608;28;20361;-65
2023/05/05 09:49:44;;;;;;;3.28;3.05;;;;;;;;;;5051160;28;20584;-65
2023/05/05 09:52:14;;;;;;;3.90;3.30;;;;;;;;;;5034722;28;20399;-65
2023/05/05 09:54:40;;;;;;;5.78;5.22;;;;;;;;;;5031711;28;20395;-65
2023/05/05 09:57:07;;;;;;;4.55;4.15;;;;;;;;;;5034137;28;20655;-68
2023/05/05 09:59:33;;;;;;;5.28;4.75;;;;;;;;;;5052330;28;20518;-66
2023/05/05 10:02:11;;;;;;;4.55;4.15;;;;;;;;;;5046735;28;20532;-66
2023/05/05 10:04:38;;;;;;;4.20;3.90;;;;;;;;;;5033849;28;20080;-65
2023/05/05 10:07:04;;;;;;;3.85;3.55;;;;;;;;;;5033384;28;20048;-66
2023/05/05 10:09:32;;;;;;;3.20;3.00;;;;;;;;;;5034248;28;20048;-65
2023/05/05 10:12:00;;;;;;;4.72;4.32;;;;;;;;;;5050168;28;20128;-65
2023/05/05 10:14:26;;;;;;;5.10;4.60;;;;;;;;;;5032216;28;20102;-65
2023/05/05 10:16:54;;;;;;;5.88;5.35;;;;;;;;;;5049396;28;20041;-65
2023/05/05 10:19:21;;;;;;;6.97;6.38;;;;;;;;;;5032224;28;20407;-65
2023/05/05 10:21:51;;;;;;;9.65;8.30;;;;;;;;;;5030472;28;20052;-65
2023/05/05 10:24:36;;;;;;;8.88;7.65;;;;;;;;;;5033234;28;20048;-65
2023/05/05 10:27:07;;;;;;;7.53;6.82;;;;;;;;;;5031681;28;20049;-65
2023/05/05 10:29:39;;;;;;;6.18;5.57;;;;;;;;;;5032152;28;20064;-65
2023/05/05 10:32:05;;;;;;;;;;;;;;;;;;5032239;28;20492;-65
2023/05/05 10:34:38;;;;;;;9.20;8.40;;;;;;;;;;5028764;28;20011;-65
2023/05/05 10:37:05;;;;;;;8.55;7.75;;;;;;;;;;5045862;28;20135;-65
2023/05/05 10:39:32;;;;;;;12.20;10.98;;;;;;;;;;5028912;28;20047;-65
2023/05/05 10:42:01;;;;;;;9.77;8.77;;;;;;;;;;5046388;28;20404;-65
2023/05/05 10:44:27;;;;;;;14.68;10.35;;;;;;;;;;5046686;28;20044;-65
2023/05/05 10:46:53;;;;;;;7.80;7.10;;;;;;;;;;5028342;28;20049;-65
2023/05/05 10:49:27;;;;;;;10.23;8.23;;;;;;;;;;5049969;28;20063;-65
2023/05/05 10:52:09;;;;;;;7.75;7.00;;;;;;;;;;5028034;28;20045;-65
2023/05/05 10:54:43;;;;;;;5.88;5.38;;;;;;;;;;5040676;28;20049;-65
2023/05/05 10:57:10;;;;;;;3.83;3.53;;;;;;;;;;5046745;28;20087;-65
2023/05/05 10:59:36;;;;;;;5.50;5.05;;;;;;;;;;5028473;28;20114;-65
2023/05/05 11:02:18;;;;;;;7.90;7.15;;;;;;;;;;5028883;28;20051;-66
2023/05/05 11:05:02;;;;;;;10.57;9.50;;;;;;;;;;5029463;28;20055;-66
2023/05/05 11:07:28;;;;;;;9.20;8.25;;;;;;;;;;5021875;28;20491;-65
2023/05/05 11:09:55;;;;;;;7.07;6.38;;;;;;;;;;5028744;28;20057;-66
2023/05/05 11:12:21;;;;;;;4.53;4.13;;;;;;;;;;5028268;28;20045;-65
2023/05/05 11:14:47;;;;;;;5.25;3.75;;;;;;;;;;5028474;28;20511;-66
2023/05/05 11:17:32;;;;;;;5.22;4.75;;;;;;;;;;5028631;28;20064;-65
2023/05/05 11:19:58;;;;;;;5.35;4.85;;;;;;;;;;5044955;28;20049;-66
2023/05/05 11:22:24;;;;;;;7.70;6.88;;;;;;;;;;5045422;28;20137;-65
2023/05/05 11:24:50;;;;;;;5.72;5.22;;;;;;;;;;5051977;28;20644;-64
2023/05/05 11:27:16;;;;;;;6.85;4.25;;;;;;;;;;5027112;28;20663;-64
2023/05/05 11:30:01;;;;;;;3.78;3.47;;;;;;;;;;5045212;28;20664;-64
2023/05/05 11:32:27;;;;;;;6.55;5.25;;;;;;;;;;5021988;28;20048;-64
2023/05/05 11:34:53;;;;;;;5.05;4.57;;;;;;;;;;5044863;28;20044;-64
2023/05/05 11:37:22;;;;;;;5.40;4.90;;;;;;;;;;5046042;28;20049;-64
2023/05/05 11:40:07;;;;;;;4.07;3.78;;;;;;;;;;5028092;28;20078;-64
2023/05/05 11:42:33;;;;;;;1.80;1.70;;;;;;;;;;5046091;28;20425;-64
2023/05/05 11:44:59;;;;;;;2.38;2.17;;;;;;;;;;5027349;28;20052;-64
2023/05/05 11:47:26;;;;;;;3.95;3.65;;;;;;;;;;5044743;28;20057;-64
2023/05/05 11:49:52;;;;;;;3.55;3.13;;;;;;;;;;5045576;28;20140;-64
2023/05/05 11:52:17;;;;;;;3.22;3.00;;;;;;;;;;5028188;28;20057;-64
2023/05/05 11:54:47;;;;;;;2.22;2.03;;;;;;;;;;5027658;28;20044;-64
2023/05/05 11:57:20;;;;;;;2.05;1.90;;;;;;;;;;5045757;28;20055;-64
2023/05/05 11:59:54;;;;;;;4.00;3.40;;;;;;;;;;5027164;28;20189;-64
2023/05/05 12:02:20;;;;;;;2.35;2.15;;;;;;;;;;5027345;28;20377;-64
2023/05/05 12:04:46;;;;;;;1.60;1.50;;;;;;;;;;5027382;28;20049;-65
2023/05/05 12:07:20;;;;;;;1.20;1.13;;;;;;;;;;5045135;28;20500;-64
2023/05/05 12:09:47;;;;;;;1.23;1.13;;;;;;;;;;5026993;28;20135;-64
2023/05/05 12:12:13;;;;;;;1.85;1.75;;;;;;;;;;5044612;28;20091;-64
2023/05/05 12:14:52;;;;;;;2.65;2.45;;;;;;;;;;5045447;28;20095;-64
2023/05/05 12:17:22;;;;;;;2.38;1.73;;;;;;;;;;5026990;28;20052;-64
2023/05/05 12:19:48;;;;;;;1.20;1.10;;;;;;;;;;5045239;28;20101;-64
2023/05/05 12:22:18;;;;;;;1.30;1.20;;;;;;;;;;5044969;28;20044;-64
2023/05/05 12:24:44;;;;;;;1.65;1.15;;;;;;;;;;5026820;28;20051;-64
2023/05/05 12:27:11;;;;;;;1.85;1.73;;;;;;;;;;5044669;28;20049;-63
2023/05/05 12:29:37;;;;;;;2.90;2.65;;;;;;;;;;5032915;28;20084;-63
2023/05/05 12:32:03;;;;;;;2.83;2.60;;;;;;;;;;5024278;28;20060;-64
2023/05/05 12:34:30;;;;;;;2.80;2.50;;;;;;;;;;5024540;28;20056;-63
2023/05/05 12:36:57;;;;;;;3.45;2.30;;;;;;;;;;5006872;28;20053;-63
2023/05/05 12:39:23;;;;;;;4.32;2.33;;;;;;;;;;5007439;28;20053;-63
2023/05/05 12:41:49;;;;;;;1.85;1.75;;;;;;;;;;5006814;28;20060;-63
2023/05/05 12:44:15;;;;;;;1.17;1.08;;;;;;;;;;5005597;28;20128;-64
2023/05/05 12:46:45;;;;;;;4.80;2.95;;;;;;;;;;5006013;28;20062;-64
2023/05/05 12:49:11;;;;;;;1.50;1.35;;;;;;;;;;5006029;28;20079;-63
2023/05/05 12:51:37;;;;;;;1.25;1.13;;;;;;;;;;5005083;28;20502;-64
2023/05/05 12:54:08;;;;;;;1.55;1.45;;;;;;;;;;5022916;28;20053;-63
2023/05/05 12:56:35;;;;;;;3.45;1.80;;;;;;;;;;5006035;28;20407;-64
2023/05/05 12:59:03;;;;;;;1.02;0.93;;;;;;;;;;5024229;28;20079;-63
2023/05/05 13:01:29;;;;;;;0.98;0.93;;;;;;;;;;5025143;28;20048;-63
2023/05/05 13:04:11;;;;;;;0.80;0.80;;;;;;;;;;5007028;28;20397;-63
2023/05/05 13:06:38;;;;;;;1.75;1.20;;;;;;;;;;5024470;28;20179;-63
2023/05/05 13:09:05;;;;;;;0.60;0.60;;;;;;;;;;5024591;28;20049;-63
2023/05/05 13:11:35;;;;;;;1.10;0.82;;;;;;;;;;5024250;28;20135;-63
2023/05/05 13:14:01;;;;;;;0.90;0.65;;;;;;;;;;5007111;28;20639;-63
2023/05/05 13:16:27;;;;;;;1.52;1.15;;;;;;;;;;5025151;28;20045;-63
2023/05/05 13:18:53;;;;;;;1.15;1.05;;;;;;;;;;5006581;28;20056;-63
2023/05/05 13:21:19;;;;;;;0.80;0.80;;;;;;;;;;5025385;28;20472;-63
2023/05/05 13:23:45;;;;;;;0.93;0.93;;;;;;;;;;5025041;28;20049;-63
2023/05/05 13:26:12;;;;;;;0.75;0.75;;;;;;;;;;5024568;28;20052;-63
2023/05/05 13:28:38;;;;;;;1.17;0.90;;;;;;;;;;5024690;28;20507;-63
2023/05/05 13:31:04;;;;;;;0.70;0.70;;;;;;;;;;5024658;28;20381;-63
2023/05/05 13:33:34;;;;;;;1.35;1.25;;;;;;;;;;5024293;28;20107;-63
2023/05/05 13:36:00;;;;;;;1.73;1.63;;;;;;;;;;5024475;28;20052;-63
2023/05/05 13:38:26;;;;;;;4.40;3.83;;;;;;;;;;5006922;28;20041;-63
2023/05/05 13:40:52;;;;;;;6.53;4.38;;;;;;;;;;5006195;28;20053;-63
2023/05/05 13:43:19;;;;;;;3.67;3.38;;;;;;;;;;5007057;28;20042;-63
2023/05/05 13:45:45;;;;;;;3.30;2.75;;;;;;;;;;5024364;28;20051;-63
2023/05/05 13:48:11;;;;;;;2.60;2.40;;;;;;;;;;5024203;28;20214;-63
2023/05/05 13:50:37;;;;;;;2.72;2.03;;;;;;;;;;5006667;28;20108;-63
2023/05/05 13:53:03;;;;;;;1.77;1.67;;;;;;;;;;5006566;28;20049;-63
2023/05/05 13:55:29;;;;;;;3.28;2.80;;;;;;;;;;5024112;28;20454;-63
2023/05/05 13:57:55;;;;;;;2.72;2.45;;;;;;;;;;5006330;28;20076;-63
2023/05/05 14:00:21;;;;;;;4.78;4.32;;;;;;;;;;5006949;28;20111;-63
2023/05/05 14:02:47;;;;;;;7.65;4.80;;;;;;;;;;5023728;28;20099;-63
2023/05/05 14:05:14;;;;;;;5.65;4.35;;;;;;;;;;5007238;28;20049;-63
2023/05/05 14:07:40;;;;;;;3.80;3.40;;;;;;;;;;5006243;28;20076;-63
2023/05/05 14:10:06;;;;;;;4.43;3.90;;;;;;;;;;5026837;28;20061;-63
2023/05/05 14:12:32;;;;;;;3.53;3.20;;;;;;;;;;5028449;28;20053;-63
2023/05/05 14:14:59;;;;;;;4.10;3.72;;;;;;;;;;5027290;28;20161;-63
2023/05/05 14:17:25;;;;;;;5.05;3.60;;;;;;;;;;5027983;28;20056;-63
2023/05/05 14:19:51;;;;;;;3.00;2.80;;;;;;;;;;5027772;28;20045;-63
2023/05/05 14:22:17;;;;;;;4.28;2.85;;;;;;;;;;5009683;28;20081;-63
2023/05/05 14:24:43;;;;;;;3.05;2.78;;;;;;;;;;5028266;28;20072;-63
2023/05/05 14:27:09;;;;;;;3.90;2.38;;;;;;;;;;5027416;28;20053;-63
2023/05/05 14:29:35;;;;;;;2.35;2.15;;;;;;;;;;5027255;28;20042;-63
2023/05/05 14:32:01;;;;;;;3.00;2.67;;;;;;;;;;5027261;28;20055;-63
2023/05/05 14:34:27;;;;;;;2.58;2.22;;;;;;;;;;5009930;28;20045;-63
2023/05/05 14:36:53;;;;;;;2.78;2.20;;;;;;;;;;5027065;28;20052;-63
2023/05/05 14:39:19;;;;;;;2.28;2.03;;;;;;;;;;5009920;28;20053;-63
2023/05/05 14:41:45;;;;;;;2.85;2.55;;;;;;;;;;5027712;28;20046;-63
2023/05/05 14:44:11;;;;;;;2.58;2.38;;;;;;;;;;5027221;28;20290;-63
2023/05/05 14:46:37;;;;;;;5.68;2.38;;;;;;;;;;5027245;28;20474;-63